Bookmark and Share
Track history (hours):
 

Asian Infinity

Last reported at 2014-Apr-21 11:09 UTC. Time now 2014-Apr-21 12:08 UTC.
Position N 34°58' E 129°16'.

Length 104 m; draft 4.7 m.

Type: Cargo ship. MMSI: 351868000.

NotesDate/timePositionNaut miles runAvg speedWind from/ knotsBaromVisibWave heightAir tempDewpointWater temp
2014-Apr-21 11:09N 34°58' E 129°16'711.3
2014-Apr-21 10:31N 35°03' E 129°09'6 6.2
2014-Apr-21 09:33N 35°07' E 129°04'0 0.0
2014-Apr-21 08:32N 35°07' E 129°04'0 0.0
2014-Apr-21 07:32N 35°07' E 129°04'0 0.0
2014-Apr-21 06:32N 35°07' E 129°04'0 0.0
2014-Apr-21 05:17N 35°07' E 129°04'0 0.0
2014-Apr-21 04:32N 35°07' E 129°04'0 0.0
2014-Apr-21 03:26N 35°07' E 129°04'0 0.0
2014-Apr-21 02:29N 35°07' E 129°04'0 0.0
2014-Apr-21 01:29N 35°07' E 129°04'0 0.0
2014-Apr-21 00:26N 35°07' E 129°04'0 0.0
2014-Apr-20 23:32N 35°07' E 129°04'0 0.0
2014-Apr-20 22:32N 35°07' E 129°04'0 0.0
2014-Apr-20 21:29N 35°07' E 129°04'0 0.0
2014-Apr-20 20:32N 35°07' E 129°04'0 0.0
2014-Apr-20 19:29N 35°07' E 129°04'0 0.0
2014-Apr-20 18:32N 35°07' E 129°04'0 0.0
2014-Apr-20 17:17N 35°07' E 129°04'0 0.0
2014-Apr-20 16:29N 35°07' E 129°04'0 0.0
2014-Apr-20 15:32N 35°07' E 129°04'0 0.0
2014-Apr-20 14:32N 35°07' E 129°04'0 0.0
2014-Apr-20 13:29N 35°07' E 129°04'5 5.2
2014-Apr-20 12:32N 35°03' E 129°08'  
2014-Apr-17 04:06N 37°40' E 122°55'611.1
2014-Apr-17 03:31N 37°44' E 122°48'  
2014-Apr-12 16:22N 38°56' E 117°58'8 9.6
2014-Apr-12 15:33N 38°58' E 117°49'3 2.7
2014-Apr-12 14:33N 38°59' E 117°45'0 0.0
2014-Apr-12 13:13N 38°59' E 117°45'0 0.0
2014-Apr-12 12:32N 38°59' E 117°45'0 0.0
2014-Apr-12 11:32N 38°59' E 117°45'0 0.0
2014-Apr-12 10:32N 38°59' E 117°45'0 0.0
2014-Apr-12 09:08N 38°59' E 117°45'0 0.0
2014-Apr-12 08:31N 38°59' E 117°45'0 0.0
2014-Apr-12 07:19N 38°59' E 117°45'0 0.0
2014-Apr-12 06:31N 38°59' E 117°45'0 0.0
2014-Apr-12 05:25N 38°59' E 117°45'0 0.0
2014-Apr-12 04:31N 38°59' E 117°45'0 0.0
2014-Apr-12 03:13N 38°59' E 117°45'0 0.0
2014-Apr-12 02:31N 38°59' E 117°45'0 0.0
2014-Apr-12 01:25N 38°59' E 117°45'0 0.0
2014-Apr-12 00:31N 38°59' E 117°45'0 0.0
2014-Apr-11 23:31N 38°59' E 117°45'0 0.0
2014-Apr-11 22:33N 38°59' E 117°45'7 7.2
2014-Apr-11 21:33N 38°57' E 117°55'9 9.1
2014-Apr-11 20:32N 38°56' E 118°06'9 9.0
2014-Apr-11 19:30N 38°53' E 118°18'  

Dump ship's entire track history

sailing weather and tide predictions

Asian Infinity — 3EVP3 — position and weather